sensor_id;sensor_type;location;lat;lon;timestamp;P1;durP1;ratioP1;P2;durP2;ratioP2
64291;SDS011;50628;51.008;13.658;2023-09-08T00:03:13;7.45;;;5.65;;
64291;SDS011;50628;51.008;13.658;2023-09-08T00:08:16;11.47;;;5.67;;
64291;SDS011;50628;51.008;13.658;2023-09-08T00:13:18;7.23;;;5.10;;
64291;SDS011;50628;51.008;13.658;2023-09-08T00:18:19;9.70;;;5.20;;
64291;SDS011;50628;51.008;13.658;2023-09-08T00:23:23;8.13;;;5.20;;
64291;SDS011;50628;51.008;13.658;2023-09-08T00:28:24;7.72;;;5.45;;
64291;SDS011;50628;51.008;13.658;2023-09-08T00:33:26;5.63;;;5.00;;
64291;SDS011;50628;51.008;13.658;2023-09-08T00:38:30;7.93;;;5.33;;
64291;SDS011;50628;51.008;13.658;2023-09-08T00:43:31;7.97;;;4.80;;
64291;SDS011;50628;51.008;13.658;2023-09-08T00:48:33;7.17;;;5.20;;
64291;SDS011;50628;51.008;13.658;2023-09-08T00:53:37;6.17;;;4.90;;
64291;SDS011;50628;51.008;13.658;2023-09-08T00:58:39;5.33;;;4.80;;
64291;SDS011;50628;51.008;13.658;2023-09-08T01:03:41;8.37;;;5.10;;
64291;SDS011;50628;51.008;13.658;2023-09-08T01:08:45;6.53;;;5.17;;
64291;SDS011;50628;51.008;13.658;2023-09-08T01:13:46;6.27;;;5.10;;
64291;SDS011;50628;51.008;13.658;2023-09-08T01:18:48;10.93;;;5.77;;
64291;SDS011;50628;51.008;13.658;2023-09-08T01:23:59;8.23;;;5.00;;
64291;SDS011;50628;51.008;13.658;2023-09-08T01:29:20;5.53;;;5.03;;
64291;SDS011;50628;51.008;13.658;2023-09-08T01:34:24;7.33;;;4.67;;
64291;SDS011;50628;51.008;13.658;2023-09-08T01:39:26;6.20;;;5.40;;
64291;SDS011;50628;51.008;13.658;2023-09-08T01:44:30;6.90;;;5.20;;
64291;SDS011;50628;51.008;13.658;2023-09-08T01:49:31;6.53;;;4.83;;
64291;SDS011;50628;51.008;13.658;2023-09-08T01:54:33;6.97;;;5.00;;
64291;SDS011;50628;51.008;13.658;2023-09-08T01:59:37;8.57;;;4.97;;
64291;SDS011;50628;51.008;13.658;2023-09-08T02:04:38;12.23;;;6.00;;
64291;SDS011;50628;51.008;13.658;2023-09-08T02:09:40;11.03;;;5.57;;
64291;SDS011;50628;51.008;13.658;2023-09-08T02:14:43;15.53;;;5.27;;
64291;SDS011;50628;51.008;13.658;2023-09-08T02:19:45;10.17;;;5.00;;
64291;SDS011;50628;51.008;13.658;2023-09-08T02:24:47;8.77;;;5.27;;
64291;SDS011;50628;51.008;13.658;2023-09-08T02:29:51;12.33;;;5.93;;
64291;SDS011;50628;51.008;13.658;2023-09-08T02:34:52;8.50;;;4.93;;
64291;SDS011;50628;51.008;13.658;2023-09-08T02:39:55;6.97;;;5.07;;
64291;SDS011;50628;51.008;13.658;2023-09-08T02:44:58;9.60;;;5.47;;
64291;SDS011;50628;51.008;13.658;2023-09-08T02:50:00;7.17;;;5.03;;
64291;SDS011;50628;51.008;13.658;2023-09-08T02:55:03;7.83;;;5.13;;
64291;SDS011;50628;51.008;13.658;2023-09-08T03:00:07;7.53;;;4.90;;
64291;SDS011;50628;51.008;13.658;2023-09-08T03:05:09;11.40;;;5.37;;
64291;SDS011;50628;51.008;13.658;2023-09-08T03:10:11;8.73;;;4.87;;
64291;SDS011;50628;51.008;13.658;2023-09-08T03:15:15;7.27;;;5.13;;
64291;SDS011;50628;51.008;13.658;2023-09-08T03:20:16;7.60;;;5.00;;
64291;SDS011;50628;51.008;13.658;2023-09-08T03:25:18;13.63;;;6.13;;
64291;SDS011;50628;51.008;13.658;2023-09-08T03:30:22;14.60;;;10.23;;
64291;SDS011;50628;51.008;13.658;2023-09-08T03:35:24;11.67;;;5.93;;
64291;SDS011;50628;51.008;13.658;2023-09-08T03:40:26;11.93;;;6.37;;
64291;SDS011;50628;51.008;13.658;2023-09-08T03:45:29;12.07;;;5.53;;
64291;SDS011;50628;51.008;13.658;2023-09-08T03:50:31;10.73;;;5.40;;
64291;SDS011;50628;51.008;13.658;2023-09-08T03:55:33;15.67;;;5.27;;
64291;SDS011;50628;51.008;13.658;2023-09-08T04:00:37;8.37;;;4.90;;
64291;SDS011;50628;51.008;13.658;2023-09-08T04:05:39;7.13;;;5.23;;
64291;SDS011;50628;51.008;13.658;2023-09-08T04:10:41;7.60;;;5.20;;
64291;SDS011;50628;51.008;13.658;2023-09-08T04:15:44;8.00;;;6.00;;
64291;SDS011;50628;51.008;13.658;2023-09-08T04:20:46;15.33;;;6.37;;
64291;SDS011;50628;51.008;13.658;2023-09-08T04:25:49;11.57;;;5.60;;
64291;SDS011;50628;51.008;13.658;2023-09-08T04:30:52;8.03;;;5.47;;
64291;SDS011;50628;51.008;13.658;2023-09-08T04:35:54;9.70;;;5.80;;
64291;SDS011;50628;51.008;13.658;2023-09-08T04:40:56;13.07;;;6.87;;
64291;SDS011;50628;51.008;13.658;2023-09-08T04:46:00;20.50;;;13.63;;
64291;SDS011;50628;51.008;13.658;2023-09-08T04:51:03;52.10;;;42.73;;
64291;SDS011;50628;51.008;13.658;2023-09-08T04:56:05;50.73;;;44.50;;
64291;SDS011;50628;51.008;13.658;2023-09-08T05:01:08;30.80;;;24.80;;
64291;SDS011;50628;51.008;13.658;2023-09-08T05:06:10;22.17;;;18.17;;
64291;SDS011;50628;51.008;13.658;2023-09-08T05:11:14;21.57;;;15.73;;
64291;SDS011;50628;51.008;13.658;2023-09-08T05:16:18;19.47;;;13.60;;
64291;SDS011;50628;51.008;13.658;2023-09-08T05:21:27;13.50;;;11.53;;
64291;SDS011;50628;51.008;13.658;2023-09-08T05:26:29;11.93;;;7.60;;
64291;SDS011;50628;51.008;13.658;2023-09-08T05:31:33;11.47;;;9.27;;
64291;SDS011;50628;51.008;13.658;2023-09-08T05:36:35;16.47;;;8.80;;
64291;SDS011;50628;51.008;13.658;2023-09-08T05:41:38;12.23;;;8.97;;
64291;SDS011;50628;51.008;13.658;2023-09-08T05:46:43;11.30;;;8.87;;
64291;SDS011;50628;51.008;13.658;2023-09-08T05:51:46;14.70;;;8.53;;
64291;SDS011;50628;51.008;13.658;2023-09-08T05:56:48;14.53;;;8.97;;
64291;SDS011;50628;51.008;13.658;2023-09-08T06:01:52;18.87;;;8.63;;
64291;SDS011;50628;51.008;13.658;2023-09-08T06:06:54;11.33;;;8.37;;
64291;SDS011;50628;51.008;13.658;2023-09-08T06:11:56;11.97;;;8.00;;
64291;SDS011;50628;51.008;13.658;2023-09-08T06:17:00;13.43;;;6.77;;
64291;SDS011;50628;51.008;13.658;2023-09-08T06:22:02;12.13;;;7.73;;
64291;SDS011;50628;51.008;13.658;2023-09-08T06:27:05;11.27;;;7.83;;
64291;SDS011;50628;51.008;13.658;2023-09-08T06:32:09;14.40;;;7.80;;
64291;SDS011;50628;51.008;13.658;2023-09-08T06:37:15;11.90;;;7.20;;
64291;SDS011;50628;51.008;13.658;2023-09-08T06:42:17;10.67;;;7.67;;
64291;SDS011;50628;51.008;13.658;2023-09-08T06:47:26;14.53;;;7.73;;
64291;SDS011;50628;51.008;13.658;2023-09-08T06:52:28;12.65;;;7.90;;
64291;SDS011;50628;51.008;13.658;2023-09-08T06:57:30;14.57;;;7.80;;
64291;SDS011;50628;51.008;13.658;2023-09-08T07:02:33;13.68;;;8.10;;
64291;SDS011;50628;51.008;13.658;2023-09-08T07:07:36;26.25;;;14.73;;
64291;SDS011;50628;51.008;13.658;2023-09-08T07:12:38;12.57;;;7.53;;
64291;SDS011;50628;51.008;13.658;2023-09-08T07:17:42;18.08;;;7.63;;
64291;SDS011;50628;51.008;13.658;2023-09-08T07:22:44;21.65;;;7.38;;
64291;SDS011;50628;51.008;13.658;2023-09-08T07:27:47;19.83;;;7.18;;
64291;SDS011;50628;51.008;13.658;2023-09-08T07:32:55;14.48;;;8.27;;
64291;SDS011;50628;51.008;13.658;2023-09-08T07:37:58;11.50;;;7.55;;
64291;SDS011;50628;51.008;13.658;2023-09-08T07:43:00;18.55;;;7.70;;
64291;SDS011;50628;51.008;13.658;2023-09-08T07:48:04;15.35;;;7.20;;
64291;SDS011;50628;51.008;13.658;2023-09-08T07:53:06;16.52;;;7.03;;
64291;SDS011;50628;51.008;13.658;2023-09-08T07:58:08;11.43;;;6.80;;
64291;SDS011;50628;51.008;13.658;2023-09-08T08:03:11;10.77;;;5.53;;
64291;SDS011;50628;51.008;13.658;2023-09-08T08:08:13;9.10;;;5.47;;
64291;SDS011;50628;51.008;13.658;2023-09-08T08:13:16;9.85;;;5.15;;
64291;SDS011;50628;51.008;13.658;2023-09-08T08:18:19;13.10;;;5.63;;
64291;SDS011;50628;51.008;13.658;2023-09-08T08:23:21;13.60;;;5.30;;
64291;SDS011;50628;51.008;13.658;2023-09-08T08:28:23;8.13;;;5.07;;
64291;SDS011;50628;51.008;13.658;2023-09-08T08:33:26;14.40;;;4.90;;
64291;SDS011;50628;51.008;13.658;2023-09-08T08:38:29;14.60;;;5.00;;
64291;SDS011;50628;51.008;13.658;2023-09-08T08:43:32;11.18;;;4.63;;
64291;SDS011;50628;51.008;13.658;2023-09-08T08:48:35;10.07;;;5.38;;
64291;SDS011;50628;51.008;13.658;2023-09-08T08:53:39;8.80;;;4.32;;
64291;SDS011;50628;51.008;13.658;2023-09-08T08:58:41;7.43;;;4.38;;
64291;SDS011;50628;51.008;13.658;2023-09-08T09:03:46;6.55;;;4.63;;
64291;SDS011;50628;51.008;13.658;2023-09-08T09:08:50;13.45;;;4.47;;
64291;SDS011;50628;51.008;13.658;2023-09-08T09:13:52;11.00;;;5.10;;
64291;SDS011;50628;51.008;13.658;2023-09-08T09:18:56;7.72;;;3.85;;
64291;SDS011;50628;51.008;13.658;2023-09-08T09:23:58;4.72;;;3.08;;
64291;SDS011;50628;51.008;13.658;2023-09-08T09:29:00;6.97;;;3.15;;
64291;SDS011;50628;51.008;13.658;2023-09-08T09:34:04;5.88;;;3.92;;
64291;SDS011;50628;51.008;13.658;2023-09-08T09:39:06;4.13;;;2.97;;
64291;SDS011;50628;51.008;13.658;2023-09-08T09:44:09;5.90;;;2.85;;
64291;SDS011;50628;51.008;13.658;2023-09-08T09:49:13;11.35;;;3.00;;
64291;SDS011;50628;51.008;13.658;2023-09-08T09:54:17;3.80;;;3.08;;
64291;SDS011;50628;51.008;13.658;2023-09-08T09:59:19;4.85;;;2.65;;
64291;SDS011;50628;51.008;13.658;2023-09-08T10:04:24;4.63;;;2.50;;
64291;SDS011;50628;51.008;13.658;2023-09-08T10:09:26;3.28;;;2.58;;
64291;SDS011;50628;51.008;13.658;2023-09-08T10:14:28;6.35;;;2.38;;
64291;SDS011;50628;51.008;13.658;2023-09-08T10:19:33;4.90;;;2.72;;
64291;SDS011;50628;51.008;13.658;2023-09-08T10:24:41;4.60;;;3.13;;
64291;SDS011;50628;51.008;13.658;2023-09-08T10:29:47;5.10;;;2.75;;
64291;SDS011;50628;51.008;13.658;2023-09-08T10:34:51;7.47;;;2.83;;
64291;SDS011;50628;51.008;13.658;2023-09-08T10:40:03;7.07;;;3.40;;
64291;SDS011;50628;51.008;13.658;2023-09-08T10:45:22;3.97;;;2.47;;
64291;SDS011;50628;51.008;13.658;2023-09-08T10:50:29;6.55;;;2.90;;
64291;SDS011;50628;51.008;13.658;2023-09-08T10:55:36;3.60;;;2.67;;
64291;SDS011;50628;51.008;13.658;2023-09-08T11:00:44;6.18;;;3.65;;
64291;SDS011;50628;51.008;13.658;2023-09-08T11:05:49;4.20;;;2.75;;
64291;SDS011;50628;51.008;13.658;2023-09-08T11:10:51;6.20;;;2.97;;
64291;SDS011;50628;51.008;13.658;2023-09-08T11:15:53;3.95;;;2.45;;
64291;SDS011;50628;51.008;13.658;2023-09-08T11:20:57;4.90;;;2.45;;
64291;SDS011;50628;51.008;13.658;2023-09-08T11:26:00;5.75;;;3.33;;
64291;SDS011;50628;51.008;13.658;2023-09-08T11:31:02;5.47;;;2.90;;
64291;SDS011;50628;51.008;13.658;2023-09-08T11:36:10;3.83;;;2.70;;
64291;SDS011;50628;51.008;13.658;2023-09-08T11:41:15;4.75;;;2.88;;
64291;SDS011;50628;51.008;13.658;2023-09-08T11:46:18;18.17;;;10.38;;
64291;SDS011;50628;51.008;13.658;2023-09-08T11:51:23;10.38;;;7.50;;
64291;SDS011;50628;51.008;13.658;2023-09-08T11:56:25;6.07;;;2.95;;
64291;SDS011;50628;51.008;13.658;2023-09-08T12:01:27;4.45;;;2.40;;
64291;SDS011;50628;51.008;13.658;2023-09-08T12:06:31;5.65;;;2.85;;
64291;SDS011;50628;51.008;13.658;2023-09-08T12:11:33;5.32;;;2.53;;
64291;SDS011;50628;51.008;13.658;2023-09-08T12:16:37;5.15;;;2.58;;
64291;SDS011;50628;51.008;13.658;2023-09-08T12:21:55;6.43;;;4.72;;
64291;SDS011;50628;51.008;13.658;2023-09-08T12:26:57;6.90;;;2.80;;
64291;SDS011;50628;51.008;13.658;2023-09-08T12:32:03;4.68;;;2.20;;
64291;SDS011;50628;51.008;13.658;2023-09-08T12:37:07;5.13;;;2.25;;
64291;SDS011;50628;51.008;13.658;2023-09-08T12:42:10;7.07;;;2.88;;
64291;SDS011;50628;51.008;13.658;2023-09-08T12:47:12;6.25;;;2.67;;
64291;SDS011;50628;51.008;13.658;2023-09-08T12:52:16;2.75;;;2.20;;
64291;SDS011;50628;51.008;13.658;2023-09-08T12:57:17;5.78;;;3.15;;
64291;SDS011;50628;51.008;13.658;2023-09-08T13:02:19;4.65;;;3.15;;
64291;SDS011;50628;51.008;13.658;2023-09-08T13:07:23;6.95;;;2.50;;
64291;SDS011;50628;51.008;13.658;2023-09-08T13:12:26;4.95;;;2.53;;
64291;SDS011;50628;51.008;13.658;2023-09-08T13:17:28;3.85;;;2.95;;
64291;SDS011;50628;51.008;13.658;2023-09-08T13:22:31;4.70;;;2.85;;
64291;SDS011;50628;51.008;13.658;2023-09-08T13:27:33;8.88;;;2.88;;
64291;SDS011;50628;51.008;13.658;2023-09-08T13:32:34;2.65;;;2.03;;
64291;SDS011;50628;51.008;13.658;2023-09-08T13:37:38;5.15;;;2.40;;
64291;SDS011;50628;51.008;13.658;2023-09-08T13:42:40;4.63;;;2.60;;
64291;SDS011;50628;51.008;13.658;2023-09-08T13:47:41;12.02;;;8.57;;
64291;SDS011;50628;51.008;13.658;2023-09-08T13:52:45;4.38;;;2.83;;
64291;SDS011;50628;51.008;13.658;2023-09-08T13:57:46;4.72;;;2.88;;
64291;SDS011;50628;51.008;13.658;2023-09-08T14:02:49;3.25;;;2.47;;
64291;SDS011;50628;51.008;13.658;2023-09-08T14:07:52;3.83;;;2.05;;
64291;SDS011;50628;51.008;13.658;2023-09-08T14:12:54;4.60;;;2.97;;
64291;SDS011;50628;51.008;13.658;2023-09-08T14:17:55;8.38;;;3.08;;
64291;SDS011;50628;51.008;13.658;2023-09-08T14:22:59;4.03;;;3.63;;
64291;SDS011;50628;51.008;13.658;2023-09-08T14:28:01;4.05;;;2.45;;
64291;SDS011;50628;51.008;13.658;2023-09-08T14:33:03;4.68;;;2.10;;
64291;SDS011;50628;51.008;13.658;2023-09-08T14:38:07;4.80;;;2.33;;
64291;SDS011;50628;51.008;13.658;2023-09-08T14:43:09;5.15;;;3.00;;
64291;SDS011;50628;51.008;13.658;2023-09-08T14:48:11;5.05;;;2.08;;
64291;SDS011;50628;51.008;13.658;2023-09-08T14:53:14;5.97;;;2.42;;
64291;SDS011;50628;51.008;13.658;2023-09-08T14:58:16;3.90;;;2.10;;
64291;SDS011;50628;51.008;13.658;2023-09-08T15:03:18;6.55;;;2.38;;
64291;SDS011;50628;51.008;13.658;2023-09-08T15:08:21;3.38;;;1.85;;
64291;SDS011;50628;51.008;13.658;2023-09-08T15:13:23;2.65;;;2.45;;
64291;SDS011;50628;51.008;13.658;2023-09-08T15:18:25;3.88;;;2.45;;
64291;SDS011;50628;51.008;13.658;2023-09-08T15:23:28;4.40;;;2.90;;
64291;SDS011;50628;51.008;13.658;2023-09-08T15:28:30;4.00;;;2.60;;
64291;SDS011;50628;51.008;13.658;2023-09-08T15:33:32;4.75;;;2.90;;
64291;SDS011;50628;51.008;13.658;2023-09-08T15:38:35;5.50;;;2.55;;
64291;SDS011;50628;51.008;13.658;2023-09-08T15:43:38;3.67;;;3.00;;
64291;SDS011;50628;51.008;13.658;2023-09-08T15:48:41;4.38;;;2.67;;
64291;SDS011;50628;51.008;13.658;2023-09-08T15:53:44;4.50;;;2.65;;
64291;SDS011;50628;51.008;13.658;2023-09-08T15:58:46;7.07;;;4.20;;
64291;SDS011;50628;51.008;13.658;2023-09-08T16:03:48;3.67;;;2.63;;
64291;SDS011;50628;51.008;13.658;2023-09-08T16:08:51;4.32;;;2.65;;
64291;SDS011;50628;51.008;13.658;2023-09-08T16:13:53;7.38;;;3.42;;
64291;SDS011;50628;51.008;13.658;2023-09-08T16:18:55;2.83;;;2.53;;
64291;SDS011;50628;51.008;13.658;2023-09-08T16:23:58;5.85;;;2.75;;
64291;SDS011;50628;51.008;13.658;2023-09-08T16:29:00;4.15;;;2.70;;
64291;SDS011;50628;51.008;13.658;2023-09-08T16:34:02;4.53;;;2.35;;
64291;SDS011;50628;51.008;13.658;2023-09-08T16:39:05;3.72;;;2.38;;
64291;SDS011;50628;51.008;13.658;2023-09-08T16:44:07;3.05;;;2.75;;
64291;SDS011;50628;51.008;13.658;2023-09-08T16:49:09;3.83;;;2.58;;
64291;SDS011;50628;51.008;13.658;2023-09-08T16:54:12;5.40;;;3.25;;
64291;SDS011;50628;51.008;13.658;2023-09-08T16:59:14;5.15;;;3.15;;
64291;SDS011;50628;51.008;13.658;2023-09-08T17:04:16;5.95;;;3.53;;
64291;SDS011;50628;51.008;13.658;2023-09-08T17:09:19;4.32;;;2.72;;
64291;SDS011;50628;51.008;13.658;2023-09-08T17:14:22;9.80;;;3.45;;
64291;SDS011;50628;51.008;13.658;2023-09-08T17:19:24;8.23;;;5.00;;
64291;SDS011;50628;51.008;13.658;2023-09-08T17:24:27;15.82;;;7.22;;
64291;SDS011;50628;51.008;13.658;2023-09-08T17:29:29;18.17;;;9.93;;
64291;SDS011;50628;51.008;13.658;2023-09-08T17:34:32;14.15;;;8.18;;
64291;SDS011;50628;51.008;13.658;2023-09-08T17:39:35;15.32;;;10.32;;
64291;SDS011;50628;51.008;13.658;2023-09-08T17:44:37;14.10;;;9.40;;
64291;SDS011;50628;51.008;13.658;2023-09-08T17:49:39;18.85;;;13.32;;
64291;SDS011;50628;51.008;13.658;2023-09-08T17:54:42;13.45;;;9.30;;
64291;SDS011;50628;51.008;13.658;2023-09-08T17:59:44;9.88;;;7.70;;
64291;SDS011;50628;51.008;13.658;2023-09-08T18:04:46;18.35;;;7.30;;
64291;SDS011;50628;51.008;13.658;2023-09-08T18:09:49;15.75;;;8.27;;
64291;SDS011;50628;51.008;13.658;2023-09-08T18:14:51;13.93;;;10.15;;
64291;SDS011;50628;51.008;13.658;2023-09-08T18:19:54;16.98;;;10.43;;
64291;SDS011;50628;51.008;13.658;2023-09-08T18:24:57;7.65;;;5.90;;
64291;SDS011;50628;51.008;13.658;2023-09-08T18:30:00;7.60;;;5.68;;
64291;SDS011;50628;51.008;13.658;2023-09-08T18:35:03;9.55;;;6.97;;
64291;SDS011;50628;51.008;13.658;2023-09-08T18:40:07;14.77;;;7.82;;
64291;SDS011;50628;51.008;13.658;2023-09-08T18:45:09;15.20;;;7.05;;
64291;SDS011;50628;51.008;13.658;2023-09-08T18:50:11;8.30;;;7.30;;
64291;SDS011;50628;51.008;13.658;2023-09-08T18:55:15;8.32;;;5.85;;
64291;SDS011;50628;51.008;13.658;2023-09-08T19:00:17;8.57;;;6.30;;
64291;SDS011;50628;51.008;13.658;2023-09-08T19:05:19;23.20;;;14.68;;
64291;SDS011;50628;51.008;13.658;2023-09-08T19:10:22;11.50;;;6.70;;
64291;SDS011;50628;51.008;13.658;2023-09-08T19:15:24;9.90;;;6.90;;
64291;SDS011;50628;51.008;13.658;2023-09-08T19:20:26;20.02;;;17.40;;
64291;SDS011;50628;51.008;13.658;2023-09-08T19:25:30;7.78;;;6.03;;
64291;SDS011;50628;51.008;13.658;2023-09-08T19:30:31;8.50;;;6.80;;
64291;SDS011;50628;51.008;13.658;2023-09-08T19:35:33;13.77;;;6.72;;
64291;SDS011;50628;51.008;13.658;2023-09-08T19:40:37;11.60;;;7.05;;
64291;SDS011;50628;51.008;13.658;2023-09-08T19:45:38;10.15;;;6.68;;
64291;SDS011;50628;51.008;13.658;2023-09-08T19:50:42;12.73;;;6.55;;
64291;SDS011;50628;51.008;13.658;2023-09-08T19:55:46;11.60;;;6.82;;
64291;SDS011;50628;51.008;13.658;2023-09-08T20:00:49;8.52;;;6.30;;
64291;SDS011;50628;51.008;13.658;2023-09-08T20:05:51;13.65;;;8.10;;
64291;SDS011;50628;51.008;13.658;2023-09-08T20:10:55;8.68;;;6.72;;
64291;SDS011;50628;51.008;13.658;2023-09-08T20:15:57;8.80;;;7.05;;
64291;SDS011;50628;51.008;13.658;2023-09-08T20:21:00;10.73;;;6.68;;
64291;SDS011;50628;51.008;13.658;2023-09-08T20:26:04;10.13;;;7.93;;
64291;SDS011;50628;51.008;13.658;2023-09-08T20:31:06;8.23;;;5.88;;
64291;SDS011;50628;51.008;13.658;2023-09-08T20:36:08;8.82;;;6.57;;
64291;SDS011;50628;51.008;13.658;2023-09-08T20:41:12;10.98;;;5.90;;
64291;SDS011;50628;51.008;13.658;2023-09-08T20:46:14;10.15;;;6.03;;
64291;SDS011;50628;51.008;13.658;2023-09-08T20:51:16;65.65;;;45.45;;
64291;SDS011;50628;51.008;13.658;2023-09-08T20:56:20;50.15;;;33.10;;
64291;SDS011;50628;51.008;13.658;2023-09-08T21:01:22;49.35;;;30.40;;
64291;SDS011;50628;51.008;13.658;2023-09-08T21:06:24;23.58;;;17.95;;
64291;SDS011;50628;51.008;13.658;2023-09-08T21:11:28;26.23;;;16.85;;
64291;SDS011;50628;51.008;13.658;2023-09-08T21:16:30;16.27;;;11.68;;
64291;SDS011;50628;51.008;13.658;2023-09-08T21:21:31;11.55;;;8.65;;
64291;SDS011;50628;51.008;13.658;2023-09-08T21:26:35;12.32;;;8.55;;
64291;SDS011;50628;51.008;13.658;2023-09-08T21:31:37;11.05;;;9.05;;
64291;SDS011;50628;51.008;13.658;2023-09-08T21:36:38;22.83;;;14.35;;
64291;SDS011;50628;51.008;13.658;2023-09-08T21:41:42;14.32;;;9.82;;
64291;SDS011;50628;51.008;13.658;2023-09-08T21:46:43;24.67;;;12.73;;
64291;SDS011;50628;51.008;13.658;2023-09-08T21:51:45;27.42;;;14.60;;
64291;SDS011;50628;51.008;13.658;2023-09-08T21:56:50;41.00;;;25.67;;
64291;SDS011;50628;51.008;13.658;2023-09-08T22:01:53;12.05;;;8.15;;
64291;SDS011;50628;51.008;13.658;2023-09-08T22:06:55;13.05;;;9.90;;
64291;SDS011;50628;51.008;13.658;2023-09-08T22:11:59;9.43;;;7.18;;
64291;SDS011;50628;51.008;13.658;2023-09-08T22:17:03;59.58;;;35.17;;
64291;SDS011;50628;51.008;13.658;2023-09-08T22:22:05;39.72;;;25.27;;
64291;SDS011;50628;51.008;13.658;2023-09-08T22:27:09;33.17;;;17.85;;
64291;SDS011;50628;51.008;13.658;2023-09-08T22:32:11;34.20;;;19.58;;
64291;SDS011;50628;51.008;13.658;2023-09-08T22:37:13;39.83;;;22.73;;
64291;SDS011;50628;51.008;13.658;2023-09-08T22:42:17;42.20;;;29.10;;
64291;SDS011;50628;51.008;13.658;2023-09-08T22:47:19;44.80;;;30.70;;
64291;SDS011;50628;51.008;13.658;2023-09-08T22:52:20;29.17;;;18.90;;
64291;SDS011;50628;51.008;13.658;2023-09-08T22:57:24;35.42;;;21.50;;
64291;SDS011;50628;51.008;13.658;2023-09-08T23:02:25;17.35;;;12.23;;
64291;SDS011;50628;51.008;13.658;2023-09-08T23:07:27;18.23;;;14.18;;
64291;SDS011;50628;51.008;13.658;2023-09-08T23:12:31;20.77;;;14.18;;
64291;SDS011;50628;51.008;13.658;2023-09-08T23:17:32;27.80;;;15.57;;
64291;SDS011;50628;51.008;13.658;2023-09-08T23:22:35;17.70;;;13.18;;
64291;SDS011;50628;51.008;13.658;2023-09-08T23:27:38;20.70;;;12.05;;
64291;SDS011;50628;51.008;13.658;2023-09-08T23:32:40;21.65;;;15.25;;
64291;SDS011;50628;51.008;13.658;2023-09-08T23:37:42;21.15;;;16.50;;
64291;SDS011;50628;51.008;13.658;2023-09-08T23:42:46;22.47;;;18.47;;
64291;SDS011;50628;51.008;13.658;2023-09-08T23:47:48;18.20;;;14.80;;
64291;SDS011;50628;51.008;13.658;2023-09-08T23:52:50;29.83;;;18.03;;
64291;SDS011;50628;51.008;13.658;2023-09-08T23:57:53;20.10;;;10.27;;
